createdAt,value
2022-09-03T00:01:40.832Z,16.06
2022-09-03T00:04:20.904Z,15.95
2022-09-03T00:07:03.372Z,16.02
2022-09-03T00:09:38.610Z,15.97
2022-09-03T00:12:14.257Z,15.87
2022-09-03T00:14:50.132Z,15.67
2022-09-03T00:17:22.439Z,15.83
2022-09-03T00:19:56.645Z,15.82
2022-09-03T00:22:31.059Z,15.71
2022-09-03T00:25:01.760Z,15.79
2022-09-03T00:27:35.868Z,15.72
2022-09-03T00:30:10.265Z,15.68
2022-09-03T00:32:47.943Z,15.70
2022-09-03T00:35:23.367Z,15.70
2022-09-03T00:37:52.721Z,15.77
2022-09-03T00:40:37.816Z,15.71
2022-09-03T00:43:19.968Z,15.70
2022-09-03T00:45:57.915Z,15.56
2022-09-03T00:48:31.307Z,15.43
2022-09-03T00:51:16.440Z,15.41
2022-09-03T00:53:57.627Z,15.39
2022-09-03T00:56:36.158Z,15.33
2022-09-03T00:59:20.886Z,14.88
2022-09-03T01:01:56.550Z,15.62
2022-09-03T01:04:36.682Z,15.53
2022-09-03T01:07:14.533Z,15.42
2022-09-03T01:09:54.062Z,15.38
2022-09-03T01:12:36.284Z,15.23
2022-09-03T01:15:14.088Z,15.12
2022-09-03T01:17:56.005Z,15.13
2022-09-03T01:20:51.778Z,15.16
2022-09-03T01:24:02.031Z,15.20
2022-09-03T01:26:40.644Z,15.07
2022-09-03T01:29:16.432Z,15.05
2022-09-03T01:31:59.586Z,15.19
2022-09-03T01:34:39.490Z,14.95
2022-09-03T01:37:17.125Z,15.12
2022-09-03T01:39:55.288Z,15.11
2022-09-03T01:42:32.758Z,15.07
2022-09-03T01:45:14.768Z,14.77
2022-09-03T01:47:54.819Z,14.52
2022-09-03T01:50:35.041Z,14.76
2022-09-03T01:53:11.568Z,14.76
2022-09-03T01:55:51.895Z,14.86
2022-09-03T01:58:27.850Z,14.85
2022-09-03T02:01:03.187Z,14.70
2022-09-03T02:03:40.788Z,14.64
2022-09-03T02:06:10.336Z,14.76
2022-09-03T02:08:38.704Z,14.21
2022-09-03T02:11:10.081Z,14.84
2022-09-03T02:13:42.624Z,14.83
2022-09-03T02:16:16.285Z,14.52
2022-09-03T02:18:49.310Z,14.63
2022-09-03T02:21:20.258Z,14.78
2022-09-03T02:23:49.603Z,14.48
2022-09-03T02:26:23.110Z,14.71
2022-09-03T02:28:51.987Z,14.63
2022-09-03T02:31:22.249Z,14.74
2022-09-03T02:33:51.851Z,14.68
2022-09-03T02:36:27.657Z,14.73
2022-09-03T02:38:56.309Z,14.51
2022-09-03T02:41:27.567Z,14.68
2022-09-03T02:44:02.752Z,13.87
2022-09-03T02:46:37.865Z,14.58
2022-09-03T02:49:07.077Z,14.48
2022-09-03T02:51:36.658Z,14.42
2022-09-03T02:54:05.895Z,14.47
2022-09-03T02:56:34.296Z,14.35
2022-09-03T02:59:03.497Z,14.63
2022-09-03T03:01:33.178Z,14.56
2022-09-03T03:04:01.644Z,14.46
2022-09-03T03:06:29.989Z,14.55
2022-09-03T03:08:59.149Z,14.48
2022-09-03T03:11:27.568Z,14.48
2022-09-03T03:13:55.775Z,14.35
2022-09-03T03:16:24.177Z,14.32
2022-09-03T03:18:54.192Z,14.08
2022-09-03T03:21:22.794Z,14.26
2022-09-03T03:23:51.093Z,14.28
2022-09-03T03:26:21.705Z,14.29
2022-09-03T03:28:50.747Z,13.75
2022-09-03T03:31:20.959Z,13.67
2022-09-03T03:33:54.437Z,14.35
2022-09-03T03:36:24.851Z,14.36
2022-09-03T03:38:55.602Z,14.33
2022-09-03T03:41:25.874Z,14.22
2022-09-03T03:43:56.117Z,14.23
2022-09-03T03:46:25.568Z,14.32
2022-09-03T03:48:55.484Z,14.21
2022-09-03T03:51:23.882Z,14.18
2022-09-03T03:53:56.864Z,14.07
2022-09-03T03:56:26.644Z,13.96
2022-09-03T03:58:56.208Z,13.85
2022-09-03T04:01:26.576Z,13.67
2022-09-03T04:03:58.724Z,13.21
2022-09-03T04:06:27.135Z,13.63
2022-09-03T04:08:55.477Z,13.61
2022-09-03T04:11:25.115Z,13.55
2022-09-03T04:13:53.924Z,13.76
2022-09-03T04:16:23.933Z,13.91
2022-09-03T04:18:53.647Z,14.00
2022-09-03T04:21:24.848Z,13.92
2022-09-03T04:23:55.559Z,13.87
2022-09-03T04:26:25.989Z,13.75
2022-09-03T04:28:54.737Z,13.93
2022-09-03T04:31:23.181Z,13.99
2022-09-03T04:33:52.465Z,13.99
2022-09-03T04:36:23.529Z,14.16
2022-09-03T04:38:54.645Z,14.22
2022-09-03T04:41:25.155Z,14.12
2022-09-03T04:43:54.639Z,13.75
2022-09-03T04:46:26.254Z,13.88
2022-09-03T04:48:58.151Z,13.86
2022-09-03T04:51:30.218Z,14.27
2022-09-03T04:54:01.994Z,13.92
2022-09-03T04:56:32.876Z,14.59
2022-09-03T04:59:02.382Z,14.63
2022-09-03T05:01:32.932Z,14.77
2022-09-03T05:04:01.887Z,14.69
2022-09-03T05:06:33.195Z,14.88
2022-09-03T05:09:01.666Z,14.92
2022-09-03T05:11:30.657Z,14.82
2022-09-03T05:14:01.252Z,15.00
2022-09-03T05:16:31.377Z,15.21
2022-09-03T05:19:01.731Z,15.36
2022-09-03T05:21:31.883Z,15.38
2022-09-03T05:24:01.737Z,15.22
2022-09-03T05:26:31.466Z,15.62
2022-09-03T05:29:01.401Z,15.59
2022-09-03T05:31:32.275Z,15.69
2022-09-03T05:34:03.172Z,15.71
2022-09-03T05:36:35.351Z,15.61
2022-09-03T05:39:03.820Z,15.38
2022-09-03T05:41:33.724Z,15.28
2022-09-03T05:44:02.406Z,14.95
2022-09-03T05:46:32.902Z,15.26
2022-09-03T05:49:02.425Z,15.34
2022-09-03T05:51:32.701Z,15.51
2022-09-03T05:54:01.210Z,15.75
2022-09-03T05:56:31.035Z,15.81
2022-09-03T05:59:02.202Z,16.24
2022-09-03T06:01:32.239Z,16.43
2022-09-03T06:04:02.576Z,16.53
2022-09-03T06:06:34.004Z,16.68
2022-09-03T06:09:04.377Z,16.94
2022-09-03T06:11:34.997Z,17.02
2022-09-03T06:14:05.972Z,17.21
2022-09-03T06:16:35.786Z,16.64
2022-09-03T06:19:06.260Z,17.09
2022-09-03T06:21:36.115Z,17.15
2022-09-03T06:24:04.934Z,17.41
2022-09-03T06:26:33.517Z,17.55
2022-09-03T06:29:03.091Z,17.73
2022-09-03T06:31:31.362Z,17.88
2022-09-03T06:34:03.873Z,18.03
2022-09-03T06:36:32.499Z,17.67
2022-09-03T06:39:02.205Z,18.34
2022-09-03T06:41:33.908Z,18.50
2022-09-03T06:44:05.664Z,18.63
2022-09-03T06:46:36.297Z,18.78
2022-09-03T06:49:05.085Z,18.83
2022-09-03T06:51:34.504Z,18.85
2022-09-03T06:54:06.010Z,18.91
2022-09-03T06:56:39.513Z,19.01
2022-09-03T06:59:10.480Z,19.14
2022-09-03T07:01:43.810Z,19.26
2022-09-03T07:04:14.217Z,19.40
2022-09-03T07:06:44.513Z,19.52
2022-09-03T07:09:15.870Z,19.65
2022-09-03T07:11:48.816Z,19.78
2022-09-03T07:14:18.464Z,19.83
2022-09-03T07:16:47.883Z,19.91
2022-09-03T07:19:16.534Z,19.85
2022-09-03T07:21:50.113Z,20.05
2022-09-03T07:24:22.521Z,19.90
2022-09-03T07:26:51.369Z,20.21
2022-09-03T07:29:21.771Z,20.29
2022-09-03T07:31:53.177Z,20.43
2022-09-03T07:34:26.835Z,20.44
2022-09-03T07:36:55.987Z,20.05
2022-09-03T07:39:25.978Z,20.07
2022-09-03T07:41:55.071Z,19.86
2022-09-03T07:44:24.826Z,19.75
2022-09-03T07:46:53.231Z,20.08
2022-09-03T07:49:22.563Z,20.17
2022-09-03T07:51:54.752Z,20.27
2022-09-03T07:54:24.277Z,20.05
2022-09-03T07:56:54.047Z,20.53
2022-09-03T07:59:23.237Z,20.31
2022-09-03T08:01:52.506Z,20.19
2022-09-03T08:04:22.181Z,20.23
2022-09-03T08:06:50.484Z,20.19
2022-09-03T08:09:18.725Z,20.19
2022-09-03T08:11:46.940Z,20.32
2022-09-03T08:14:16.738Z,20.57
2022-09-03T08:16:48.198Z,20.65
2022-09-03T08:19:18.625Z,20.96
2022-09-03T08:21:47.357Z,21.09
2022-09-03T08:24:17.726Z,21.13
2022-09-03T08:26:51.427Z,20.87
2022-09-03T08:29:22.635Z,20.90
2022-09-03T08:31:51.141Z,21.03
2022-09-03T08:34:19.635Z,21.24
2022-09-03T08:36:48.966Z,21.32
2022-09-03T08:39:17.597Z,21.05
2022-09-03T08:42:08.524Z,21.32
2022-09-03T08:44:47.389Z,21.50
2022-09-03T08:47:22.095Z,21.40
2022-09-03T08:49:56.867Z,21.50
2022-09-03T08:52:31.068Z,21.51
2022-09-03T08:55:12.883Z,21.53
2022-09-03T08:57:44.947Z,21.57
2022-09-03T09:00:15.873Z,21.55
2022-09-03T09:02:57.221Z,21.58
2022-09-03T09:05:33.579Z,21.73
2022-09-03T09:08:09.689Z,21.85
2022-09-03T09:10:46.159Z,21.87
2022-09-03T09:13:24.851Z,21.64
2022-09-03T09:16:05.326Z,21.41
2022-09-03T09:18:45.906Z,21.59
2022-09-03T09:21:22.571Z,21.78
2022-09-03T09:23:54.314Z,21.93
2022-09-03T09:26:23.848Z,22.05
2022-09-03T09:28:58.709Z,21.94
2022-09-03T09:31:31.146Z,22.32
2022-09-03T09:34:06.913Z,22.44
2022-09-03T09:36:43.779Z,22.42
2022-09-03T09:39:16.103Z,22.24
2022-09-03T09:41:45.448Z,22.27
2022-09-03T09:44:22.173Z,22.34
2022-09-03T09:46:54.831Z,22.50
2022-09-03T09:49:33.538Z,22.68
2022-09-03T09:52:12.207Z,22.85
2022-09-03T09:54:42.411Z,22.63
2022-09-03T09:57:19.217Z,22.71
2022-09-03T09:59:48.995Z,22.65
2022-09-03T10:02:27.697Z,22.58
2022-09-03T10:05:01.588Z,22.50
2022-09-03T10:07:33.161Z,22.34
2022-09-03T10:10:07.095Z,22.13
2022-09-03T10:12:43.658Z,22.59
2022-09-03T10:15:24.177Z,22.63
2022-09-03T10:18:04.674Z,22.48
2022-09-03T10:20:38.185Z,21.91
2022-09-03T10:23:17.831Z,22.02
2022-09-03T10:25:57.295Z,22.69
2022-09-03T10:28:28.924Z,22.90
2022-09-03T10:31:29.247Z,23.11
2022-09-03T10:34:04.216Z,22.84
2022-09-03T10:36:38.154Z,23.14
2022-09-03T10:39:13.265Z,22.91
2022-09-03T10:41:54.887Z,22.67
2022-09-03T10:44:36.705Z,22.32
2022-09-03T10:47:19.959Z,22.58
2022-09-03T10:49:59.356Z,22.73
2022-09-03T10:52:33.898Z,22.63
2022-09-03T10:55:16.507Z,23.10
2022-09-03T10:57:52.489Z,23.19
2022-09-03T11:00:22.703Z,22.90
2022-09-03T11:03:30.096Z,23.12
2022-09-03T11:06:04.517Z,23.33
2022-09-03T11:08:37.844Z,23.36
2022-09-03T11:11:13.696Z,23.26
2022-09-03T11:13:48.370Z,23.23
2022-09-03T11:16:20.361Z,23.33
2022-09-03T11:18:52.899Z,23.51
2022-09-03T11:21:27.244Z,23.74
2022-09-03T11:24:12.350Z,24.01
2022-09-03T11:26:43.642Z,24.30
2022-09-03T11:29:18.367Z,24.39
2022-09-03T11:31:59.581Z,24.41
2022-09-03T11:34:31.962Z,24.55
2022-09-03T11:37:19.052Z,24.78
2022-09-03T11:39:56.549Z,24.91
2022-09-03T11:42:31.622Z,25.08
2022-09-03T11:45:21.355Z,25.21
2022-09-03T11:47:50.972Z,25.19
2022-09-03T11:50:23.090Z,24.86
2022-09-03T11:52:54.946Z,25.09
2022-09-03T11:55:31.814Z,25.21
2022-09-03T11:58:24.469Z,25.18
2022-09-03T12:00:54.243Z,25.04
2022-09-03T12:03:28.748Z,24.29
2022-09-03T12:06:16.415Z,25.11
2022-09-03T12:09:02.767Z,25.16
2022-09-03T12:11:44.231Z,25.15
2022-09-03T12:14:21.895Z,25.44
2022-09-03T12:17:10.173Z,25.76
2022-09-03T12:19:43.567Z,25.99
2022-09-03T12:22:15.960Z,25.66
2022-09-03T12:24:45.907Z,25.51
2022-09-03T12:27:24.377Z,25.28
2022-09-03T12:29:58.284Z,25.25
2022-09-03T12:32:26.972Z,25.47
2022-09-03T12:34:55.725Z,25.98
2022-09-03T12:40:21.545Z,26.66
2022-09-03T12:42:50.453Z,26.96
2022-09-03T12:45:22.632Z,27.07
2022-09-03T12:47:51.932Z,27.31
2022-09-03T12:50:22.709Z,27.24
2022-09-03T12:52:55.151Z,27.65
2022-09-03T12:55:31.455Z,27.90
2022-09-03T12:58:12.846Z,27.74
2022-09-03T13:00:47.344Z,27.62
2022-09-03T13:03:21.346Z,27.38
2022-09-03T13:05:54.029Z,27.53
2022-09-03T13:08:25.563Z,27.72
2022-09-03T13:10:57.840Z,27.66
2022-09-03T13:13:28.203Z,27.39
2022-09-03T13:16:27.175Z,27.40
2022-09-03T13:19:02.693Z,27.30
2022-09-03T13:21:44.182Z,27.35
2022-09-03T13:24:41.591Z,27.12
2022-09-03T13:27:20.479Z,26.84
2022-09-03T13:30:05.599Z,26.91
2022-09-03T13:32:46.540Z,27.28
2022-09-03T13:35:24.086Z,27.94
2022-09-03T13:37:59.133Z,28.25
2022-09-03T13:40:34.603Z,27.80
2022-09-03T13:43:19.959Z,28.18
2022-09-03T13:45:56.229Z,28.53
2022-09-03T13:48:47.516Z,28.73
2022-09-03T13:51:20.887Z,28.98
2022-09-03T13:53:59.007Z,29.27
2022-09-03T13:56:37.564Z,28.95
2022-09-03T13:59:16.844Z,29.28
2022-09-03T14:02:03.436Z,29.57
2022-09-03T14:04:46.389Z,29.70
2022-09-03T14:07:23.408Z,29.70
2022-09-03T14:10:03.608Z,29.32
2022-09-03T14:12:42.734Z,29.51
2022-09-03T14:15:20.875Z,29.53
2022-09-03T14:17:58.862Z,29.57
2022-09-03T14:20:30.567Z,29.68
2022-09-03T14:23:04.926Z,29.90
2022-09-03T14:25:33.961Z,29.92
2022-09-03T14:28:16.384Z,29.78
2022-09-03T14:30:55.605Z,29.48
2022-09-03T14:33:33.435Z,29.21
2022-09-03T14:36:13.757Z,28.95
2022-09-03T14:39:20.515Z,29.68
2022-09-03T14:42:09.566Z,29.87
2022-09-03T14:45:01.897Z,29.95
2022-09-03T14:47:48.134Z,29.90
2022-09-03T14:50:29.718Z,30.04
2022-09-03T14:53:15.449Z,30.43
2022-09-03T14:56:25.008Z,31.39
2022-09-03T14:59:20.649Z,32.11
2022-09-03T15:02:08.351Z,32.26
2022-09-03T15:04:51.299Z,31.63
2022-09-03T15:07:32.393Z,31.33
2022-09-03T15:10:10.103Z,30.84
2022-09-03T15:12:42.434Z,30.26
2022-09-03T15:15:15.169Z,30.07
2022-09-03T15:17:52.378Z,30.54
2022-09-03T15:20:49.793Z,31.31
2022-09-03T15:23:26.759Z,31.60
2022-09-03T15:26:17.632Z,31.99
2022-09-03T15:28:58.785Z,33.02
2022-09-03T15:31:39.475Z,34.27
2022-09-03T15:34:32.574Z,34.25
2022-09-03T15:37:10.356Z,34.26
2022-09-03T15:39:44.453Z,34.54
2022-09-03T15:42:19.941Z,34.84
2022-09-03T15:44:51.402Z,34.82
2022-09-03T15:47:50.704Z,35.20
2022-09-03T15:50:33.102Z,34.60
2022-09-03T15:53:06.264Z,34.55
2022-09-03T15:55:38.899Z,34.15
2022-09-03T15:58:19.502Z,33.30
2022-09-03T16:01:00.389Z,32.53
2022-09-03T16:03:44.439Z,31.22
2022-09-03T16:06:25.874Z,30.23
2022-09-03T16:08:59.299Z,29.66
2022-09-03T16:11:41.904Z,28.92
2022-09-03T16:14:14.077Z,28.32
2022-09-03T16:16:55.289Z,27.81
2022-09-03T16:19:26.036Z,27.31
2022-09-03T16:21:58.551Z,26.91
2022-09-03T16:24:32.670Z,26.60
2022-09-03T16:27:04.692Z,26.29
2022-09-03T16:29:32.736Z,26.01
2022-09-03T16:32:09.169Z,25.79
2022-09-03T16:34:41.097Z,25.58
2022-09-03T16:37:14.269Z,25.39
2022-09-03T16:39:51.245Z,25.18
2022-09-03T16:42:23.205Z,25.09
2022-09-03T16:44:57.620Z,24.93
2022-09-03T16:47:38.844Z,24.72
2022-09-03T16:50:22.620Z,24.53
2022-09-03T16:53:08.402Z,24.46
2022-09-03T16:55:59.228Z,24.34
2022-09-03T16:58:40.257Z,24.10
2022-09-03T17:01:22.713Z,23.50
2022-09-03T17:04:21.188Z,23.93
2022-09-03T17:07:09.947Z,23.54
2022-09-03T17:09:56.509Z,23.86
2022-09-03T17:12:35.946Z,23.67
2022-09-03T17:15:21.900Z,23.54
2022-09-03T17:18:17.336Z,23.51
2022-09-03T17:20:56.839Z,23.49
2022-09-03T17:23:50.180Z,23.28
2022-09-03T17:26:26.449Z,22.74
2022-09-03T17:29:10.466Z,22.81
2022-09-03T17:31:51.660Z,22.54
2022-09-03T17:34:35.116Z,22.86
2022-09-03T17:37:21.085Z,22.57
2022-09-03T17:40:09.101Z,22.59
2022-09-03T17:42:50.886Z,22.41
2022-09-03T17:45:34.352Z,22.43
2022-09-03T17:48:18.591Z,22.37
2022-09-03T17:50:55.465Z,22.28
2022-09-03T17:53:31.052Z,22.22
2022-09-03T17:56:07.925Z,22.19
2022-09-03T17:58:42.819Z,22.07
2022-09-03T18:01:18.473Z,22.00
2022-09-03T18:03:51.381Z,22.06
2022-09-03T18:06:29.378Z,21.83
2022-09-03T18:09:03.954Z,21.95
2022-09-03T18:11:36.914Z,21.88
2022-09-03T18:14:16.720Z,21.83
2022-09-03T18:16:53.755Z,21.27
2022-09-03T18:19:30.587Z,21.74
2022-09-03T18:22:19.338Z,21.69
2022-09-03T18:25:13.633Z,21.63
2022-09-03T18:28:04.041Z,21.47
2022-09-03T18:30:53.006Z,21.37
2022-09-03T18:33:43.737Z,21.35
2022-09-03T18:36:30.455Z,21.29
2022-09-03T18:39:21.685Z,21.21
2022-09-03T18:42:20.135Z,21.27
2022-09-03T18:45:22.114Z,20.99
2022-09-03T18:48:22.047Z,21.10
2022-09-03T18:51:17.183Z,21.10
2022-09-03T18:54:12.666Z,21.03
2022-09-03T18:57:05.228Z,20.97
2022-09-03T19:00:14.637Z,20.96
2022-09-03T19:03:16.777Z,20.86
2022-09-03T19:06:19.334Z,20.82
2022-09-03T19:09:14.643Z,20.59
2022-09-03T19:12:11.679Z,20.74
2022-09-03T19:15:07.097Z,20.64
2022-09-03T19:18:10.394Z,20.37
2022-09-03T19:20:58.429Z,20.53
2022-09-03T19:23:45.390Z,20.56
2022-09-03T19:26:44.106Z,20.47
2022-09-03T19:29:42.825Z,20.56
2022-09-03T19:32:35.231Z,20.50
2022-09-03T19:35:34.551Z,20.50
2022-09-03T19:38:33.055Z,20.32
2022-09-03T19:41:31.526Z,20.23
2022-09-03T19:44:32.959Z,20.25
2022-09-03T19:47:21.390Z,19.89
2022-09-03T19:50:20.007Z,20.31
2022-09-03T19:53:12.086Z,20.18
2022-09-03T19:56:07.398Z,20.25
2022-09-03T19:59:00.905Z,20.26
2022-09-03T20:01:52.668Z,20.09
2022-09-03T20:04:43.700Z,19.89
2022-09-03T20:07:29.658Z,19.92
2022-09-03T20:10:19.909Z,19.87
2022-09-03T20:12:55.058Z,19.88
2022-09-03T20:15:33.050Z,19.93
2022-09-03T20:18:10.010Z,19.86
2022-09-03T20:20:46.296Z,19.83
2022-09-03T20:23:21.203Z,19.79
2022-09-03T20:25:59.663Z,19.79
2022-09-03T20:28:46.213Z,19.82
2022-09-03T20:31:24.530Z,19.89
2022-09-03T20:34:04.567Z,19.73
2022-09-03T20:36:43.840Z,19.82
2022-09-03T20:39:35.768Z,19.71
2022-09-03T20:42:22.277Z,19.75
2022-09-03T20:45:00.282Z,19.72
2022-09-03T20:48:00.189Z,19.67
2022-09-03T20:50:43.373Z,19.51
2022-09-03T20:53:26.517Z,19.63
2022-09-03T20:56:03.807Z,19.77
2022-09-03T20:58:40.971Z,19.73
2022-09-03T21:01:13.493Z,19.74
2022-09-03T21:03:52.102Z,19.70
2022-09-03T21:06:32.574Z,19.37
2022-09-03T21:09:17.626Z,19.72
2022-09-03T21:11:52.149Z,19.75
2022-09-03T21:14:29.295Z,19.80
2022-09-03T21:17:09.885Z,19.53
2022-09-03T21:20:01.967Z,19.74
2022-09-03T21:22:40.202Z,19.47
2022-09-03T21:25:13.744Z,19.72
2022-09-03T21:27:47.766Z,19.63
2022-09-03T21:30:18.311Z,19.76
2022-09-03T21:32:52.631Z,19.71
2022-09-03T21:35:28.972Z,19.77
2022-09-03T21:38:00.619Z,19.80
2022-09-03T21:40:32.343Z,19.80
2022-09-03T21:43:09.816Z,19.83
2022-09-03T21:45:44.711Z,19.88
2022-09-03T21:48:19.770Z,19.91
2022-09-03T21:50:55.123Z,19.90
2022-09-03T21:53:31.714Z,20.02
2022-09-03T21:56:23.052Z,20.07
2022-09-03T21:59:09.144Z,19.78
2022-09-03T22:01:54.692Z,19.82
2022-09-03T22:04:23.000Z,19.74
2022-09-03T22:07:01.246Z,19.82
2022-09-03T22:09:36.649Z,19.83
2022-09-03T22:12:12.509Z,19.81
2022-09-03T22:14:46.598Z,19.87
2022-09-03T22:17:20.365Z,19.86
2022-09-03T22:19:48.689Z,19.63
2022-09-03T22:22:24.346Z,19.64
2022-09-03T22:25:04.929Z,19.60
2022-09-03T22:27:39.979Z,19.70
2022-09-03T22:30:11.511Z,19.55
2022-09-03T22:32:52.851Z,19.52
2022-09-03T22:35:49.897Z,19.61
2022-09-03T22:38:39.164Z,19.58
2022-09-03T22:41:20.356Z,19.63
2022-09-03T22:43:56.916Z,19.59
2022-09-03T22:46:34.134Z,19.54
2022-09-03T22:49:21.768Z,19.52
2022-09-03T22:52:04.579Z,19.51
2022-09-03T22:54:45.920Z,19.52
2022-09-03T22:57:18.697Z,19.07
2022-09-03T22:59:56.772Z,19.36
2022-09-03T23:02:28.764Z,19.33
2022-09-03T23:05:04.249Z,19.37
2022-09-03T23:07:54.144Z,19.33
2022-09-03T23:10:30.417Z,19.34
2022-09-03T23:13:06.823Z,19.36
2022-09-03T23:15:39.340Z,19.43
2022-09-03T23:18:17.946Z,19.42
2022-09-03T23:20:51.085Z,19.17
2022-09-03T23:23:23.420Z,18.89
2022-09-03T23:26:13.494Z,19.39
2022-09-03T23:28:45.724Z,19.37
2022-09-03T23:31:21.164Z,19.43
2022-09-03T23:33:50.426Z,18.64
2022-09-03T23:36:53.106Z,19.43
2022-09-03T23:39:27.989Z,19.50
2022-09-03T23:42:09.174Z,19.42
2022-09-03T23:44:52.176Z,19.42
2022-09-03T23:47:34.937Z,19.40
2022-09-03T23:50:14.184Z,19.32
2022-09-03T23:52:56.021Z,18.95
2022-09-03T23:55:38.411Z,18.75
2022-09-03T23:58:19.265Z,18.69
